Terminal Aerodrome Forecast
Issued by NWS Jackson, MS

Home | Current Version | Previous Version | Text Only | Print | Product List | Glossary On
Versions: 1 2 3 4 5 6 7 8 9 10 11 12
000
FTUS44 KJAN 041749
TAFJAN
TAF
KJAN 041749Z 0418/0518 33008KT 2SM -RA BR OVC004
     FM050200 01005KT P6SM SCT007 SCT015 BKN050
     FM050800 05006KT 5SM -RA BR OVC005=

USA.gov is the U.S. government's official web portal to all federal, state and local government web resources and services.